Observations for STANSTED AIRPORT, United Kingdom (EGSS)

EGSS 280520Z AUTO 34006KT 5000 -RADZ BKN003 14/14 Q0998 
EGSS 280450Z AUTO 35005KT 5000 -DZ SCT003 BKN042 14/14 Q0998
EGSS 280420Z AUTO 35005KT 7000 -RA BKN003 OVC041 14/14 Q0998
EGSS 280350Z AUTO 36005KT 7000 -RA OVC003 14/14 Q0998   
EGSS 280320Z AUTO 01006KT 7000 -RA OVC003 14/14 Q0999   
EGSS 280250Z AUTO 01007KT 5000 -RA OVC003 14/14 Q0999   
EGSS 280220Z AUTO 01007KT 6000 -RA OVC002 14/14 Q0999   
EGSS 280150Z AUTO 01007KT 5000 -RA OVC002/// //////TCU 14/14 Q1000  
EGSS 280120Z AUTO 02007KT 5000 -RA BKN003 14/14 Q1000   
EGSS 280050Z AUTO 02007KT 4500 -RADZ BKN003/// //////TCU 14/14 Q1000
EGSS 280020Z AUTO 03008KT 4000 -RA SCT002/// SCT031/// //////TCU 14/14 Q1001
EGSS 272350Z AUTO 03007KT 4100 -RA SCT003/// BKN045/// //////TCU 14/14 Q1001 RERA REDZ  
EGSS 272320Z AUTO 03007KT 4000 -RADZ FEW005/// SCT017/// OVC042/// //////TCU 14/14 Q1002
EGSS 272250Z AUTO 04007KT 4900 -RA BKN039/// //////TCU 14/14 Q1002 RERA 
EGSS 272220Z AUTO 04007KT 4900 RA BKN040/// //////TCU 14/14 Q1002   
EGSS 272150Z AUTO 04007KT 4900 -RA BKN033/// //////CB 14/14 Q1003 RERA  
EGSS 272120Z AUTO 04007KT 4300 RA BKN035/// //////TCU 14/14 Q1003   
EGSS 272050Z AUTO 05008KT 5000 -RA BKN030/// //////TCU 14/14 Q1003  
EGSS 272020Z AUTO 05008KT 5000 -RA BKN028/// //////TCU 14/14 Q1003  
EGSS 271950Z AUTO 06009KT 5000 -RA FEW006/// BKN023/// //////CB 14/14 Q1004 RERA
EGSS 271920Z AUTO 05011KT 4200 RA OVC022/// //////CB 14/14 Q1004
EGSS 271850Z AUTO 03004KT 3700 RA BKN022/// //////CB 14/14 Q1004 RERA   
EGSS 271820Z AUTO 04004KT 4300 RA SCT005/// BKN023/// //////CB 15/14 Q1004  
EGSS 271750Z AUTO 04004KT 6000 -RA FEW007/// OVC022/// //////TCU 15/14 Q1004
EGSS 271720Z AUTO 07007KT 030V100 9000 -RA SCT007/// OVC021/// //////CB 15/14 Q1005 
EGSS 271650Z AUTO 08007KT 9000 -RA FEW008/// BKN023/// //////CB 15/14 Q1005 
EGSS 271620Z AUTO 08008KT 8000 -RA FEW013/// SCT028/// BKN041/// //////CB 16/14 Q1005   
EGSS 271550Z AUTO 09010KT 9999 -RA FEW012/// BKN032/// //////CB 16/14 Q1005 
EGSS 271520Z AUTO 09011KT 050V110 9999 -RA FEW013/// OVC041/// //////TCU 16/14 Q1005
EGSS 271450Z AUTO 08011KT 9999 FEW028/// OVC041/// //////CB 17/15 Q1006 
EGSS 271420Z AUTO 05009KT 9999 OVC030/// //////CB 16/15 Q1006   
EGSS 271350Z AUTO 06008KT 9999 BKN022/// //////CB 16/15 Q1006   
EGSS 271320Z AUTO 03007KT 7000 -RA BKN020/// //////CB 16/15 Q1007 RERA  
EGSS 271250Z AUTO 05009KT 9999 -RA FEW016/// OVC033/// //////CB 16/16 Q1007 
EGSS 271220Z 35004KT 280V040 8000 -RA VCTS FEW012CB BKN034 15/15 Q1007 RERA 
EGSS 271150Z 04004KT 9000 -RA FEW018CB OVC035 16/14 Q1007 RESHRA
EGSS 271120Z 06006KT 9999 VCTS OVC040CB 17/14 Q1007 
EGSS 271050Z AUTO 10007KT 9999 -RA FEW017/// OVC042/// //////CB 17/13 Q1007 
EGSS 271020Z AUTO 09007KT 9999 -RA FEW024/// BKN031/// //////CB 16/14 Q1008 
EGSS 270950Z AUTO 10007KT 9999 -RA OVC041/// //////CB 16/13 Q1008   
EGSS 270920Z AUTO 11010KT 030V130 9000 -RA FEW029/// OVC036/// //////TCU 16/13 Q1008
EGSS 270850Z AUTO 10010KT 060V120 9999 -RA BKN033 16/12 Q1008   
EGSS 270820Z AUTO 10011KT 9999 BKN038 16/13 Q1008   
EGSS 270750Z AUTO 10009KT 9999 OVC042 16/13 Q1009   
EGSS 270720Z AUTO 09011KT 030V130 9999 OVC045 16/12 Q1009   
EGSS 270650Z AUTO 10009KT 050V130 9999 FEW046 16/12 Q1009   
EGSS 270620Z AUTO 10010KT 9999 BKN044 15/12 Q1009   
EGSS 270550Z AUTO 10009KT 030V130 9999 BKN043 15/12 Q1010   
EGSS 270520Z AUTO 10008KT 020V130 9999 SCT043 15/12 Q1010   
EGSS 270450Z AUTO 09008KT 9999 BKN044 14/11 Q1010